sensor_id;sensor_type;location;lat;lon;timestamp;P1;durP1;ratioP1;P2;durP2;ratioP2
16699;SDS011;8466;52.286;21.124;2024-01-30T00:02:22;33.80;;;21.20;;
16699;SDS011;8466;52.286;21.124;2024-01-30T00:04:50;33.17;;;21.53;;
16699;SDS011;8466;52.286;21.124;2024-01-30T00:07:19;34.50;;;22.00;;
16699;SDS011;8466;52.286;21.124;2024-01-30T00:09:50;34.30;;;21.90;;
16699;SDS011;8466;52.286;21.124;2024-01-30T00:12:19;38.00;;;24.97;;
16699;SDS011;8466;52.286;21.124;2024-01-30T00:14:48;35.90;;;22.20;;
16699;SDS011;8466;52.286;21.124;2024-01-30T00:17:21;34.30;;;21.67;;
16699;SDS011;8466;52.286;21.124;2024-01-30T00:19:51;32.57;;;20.87;;
16699;SDS011;8466;52.286;21.124;2024-01-30T00:22:20;30.80;;;22.00;;
16699;SDS011;8466;52.286;21.124;2024-01-30T00:24:49;30.47;;;20.57;;
16699;SDS011;8466;52.286;21.124;2024-01-30T00:27:18;34.67;;;22.97;;
16699;SDS011;8466;52.286;21.124;2024-01-30T00:29:46;33.07;;;21.73;;
16699;SDS011;8466;52.286;21.124;2024-01-30T00:32:16;32.77;;;21.20;;
16699;SDS011;8466;52.286;21.124;2024-01-30T00:34:47;38.13;;;22.07;;
16699;SDS011;8466;52.286;21.124;2024-01-30T00:37:15;32.90;;;21.13;;
16699;SDS011;8466;52.286;21.124;2024-01-30T00:39:44;30.17;;;20.13;;
16699;SDS011;8466;52.286;21.124;2024-01-30T00:42:13;31.60;;;20.73;;
16699;SDS011;8466;52.286;21.124;2024-01-30T00:44:42;29.53;;;21.20;;
16699;SDS011;8466;52.286;21.124;2024-01-30T00:47:10;30.17;;;20.97;;
16699;SDS011;8466;52.286;21.124;2024-01-30T00:49:39;32.50;;;21.77;;
16699;SDS011;8466;52.286;21.124;2024-01-30T00:52:09;29.93;;;20.07;;
16699;SDS011;8466;52.286;21.124;2024-01-30T00:54:38;34.40;;;20.87;;
16699;SDS011;8466;52.286;21.124;2024-01-30T00:57:07;33.47;;;21.37;;
16699;SDS011;8466;52.286;21.124;2024-01-30T00:59:36;28.47;;;19.60;;
16699;SDS011;8466;52.286;21.124;2024-01-30T01:02:04;29.63;;;20.67;;
16699;SDS011;8466;52.286;21.124;2024-01-30T01:04:33;30.80;;;21.33;;
16699;SDS011;8466;52.286;21.124;2024-01-30T01:07:02;34.27;;;20.93;;
16699;SDS011;8466;52.286;21.124;2024-01-30T01:09:32;29.20;;;20.60;;
16699;SDS011;8466;52.286;21.124;2024-01-30T01:12:01;30.53;;;21.13;;
16699;SDS011;8466;52.286;21.124;2024-01-30T01:14:30;31.57;;;20.00;;
16699;SDS011;8466;52.286;21.124;2024-01-30T01:16:58;31.00;;;20.87;;
16699;SDS011;8466;52.286;21.124;2024-01-30T01:19:27;29.00;;;19.13;;
16699;SDS011;8466;52.286;21.124;2024-01-30T01:21:56;29.67;;;20.87;;
16699;SDS011;8466;52.286;21.124;2024-01-30T01:24:24;31.60;;;20.03;;
16699;SDS011;8466;52.286;21.124;2024-01-30T01:26:54;30.20;;;20.87;;
16699;SDS011;8466;52.286;21.124;2024-01-30T01:29:23;30.80;;;19.93;;
16699;SDS011;8466;52.286;21.124;2024-01-30T01:31:55;33.53;;;20.60;;
16699;SDS011;8466;52.286;21.124;2024-01-30T01:34:24;29.53;;;20.23;;
16699;SDS011;8466;52.286;21.124;2024-01-30T01:36:56;30.07;;;21.03;;
16699;SDS011;8466;52.286;21.124;2024-01-30T01:39:25;30.63;;;20.27;;
16699;SDS011;8466;52.286;21.124;2024-01-30T01:41:57;30.73;;;21.17;;
16699;SDS011;8466;52.286;21.124;2024-01-30T01:44:26;35.67;;;21.17;;
16699;SDS011;8466;52.286;21.124;2024-01-30T01:46:55;33.47;;;21.57;;
16699;SDS011;8466;52.286;21.124;2024-01-30T01:49:25;32.57;;;21.03;;
16699;SDS011;8466;52.286;21.124;2024-01-30T01:51:56;31.83;;;21.40;;
16699;SDS011;8466;52.286;21.124;2024-01-30T01:54:26;30.83;;;20.63;;
16699;SDS011;8466;52.286;21.124;2024-01-30T01:56:58;33.47;;;21.73;;
16699;SDS011;8466;52.286;21.124;2024-01-30T01:59:28;31.13;;;21.10;;
16699;SDS011;8466;52.286;21.124;2024-01-30T02:01:56;35.10;;;22.37;;
16699;SDS011;8466;52.286;21.124;2024-01-30T02:04:26;33.87;;;20.87;;
16699;SDS011;8466;52.286;21.124;2024-01-30T02:06:55;33.57;;;21.67;;
16699;SDS011;8466;52.286;21.124;2024-01-30T02:09:24;34.90;;;21.63;;
16699;SDS011;8466;52.286;21.124;2024-01-30T02:11:52;32.53;;;20.77;;
16699;SDS011;8466;52.286;21.124;2024-01-30T02:14:23;38.23;;;22.80;;
16699;SDS011;8466;52.286;21.124;2024-01-30T02:16:56;35.40;;;20.53;;
16699;SDS011;8466;52.286;21.124;2024-01-30T02:19:25;35.97;;;22.17;;
16699;SDS011;8466;52.286;21.124;2024-01-30T02:21:55;35.33;;;23.03;;
16699;SDS011;8466;52.286;21.124;2024-01-30T02:24:24;36.93;;;22.30;;
16699;SDS011;8466;52.286;21.124;2024-01-30T02:26:53;33.17;;;21.53;;
16699;SDS011;8466;52.286;21.124;2024-01-30T02:29:21;32.80;;;21.63;;
16699;SDS011;8466;52.286;21.124;2024-01-30T02:31:50;34.50;;;22.50;;
16699;SDS011;8466;52.286;21.124;2024-01-30T02:34:19;35.83;;;22.63;;
16699;SDS011;8466;52.286;21.124;2024-01-30T02:36:48;32.77;;;22.00;;
16699;SDS011;8466;52.286;21.124;2024-01-30T02:39:18;35.47;;;21.83;;
16699;SDS011;8466;52.286;21.124;2024-01-30T02:41:46;32.93;;;22.00;;
16699;SDS011;8466;52.286;21.124;2024-01-30T02:44:15;36.10;;;23.03;;
16699;SDS011;8466;52.286;21.124;2024-01-30T02:46:44;38.07;;;22.40;;
16699;SDS011;8466;52.286;21.124;2024-01-30T02:49:13;34.83;;;21.63;;
16699;SDS011;8466;52.286;21.124;2024-01-30T02:51:42;35.13;;;21.67;;
16699;SDS011;8466;52.286;21.124;2024-01-30T02:54:10;30.23;;;20.80;;
16699;SDS011;8466;52.286;21.124;2024-01-30T02:56:40;34.03;;;21.83;;
16699;SDS011;8466;52.286;21.124;2024-01-30T02:59:09;33.80;;;21.57;;
16699;SDS011;8466;52.286;21.124;2024-01-30T03:01:44;35.40;;;22.17;;
16699;SDS011;8466;52.286;21.124;2024-01-30T03:04:15;39.07;;;23.03;;
16699;SDS011;8466;52.286;21.124;2024-01-30T03:06:44;36.30;;;22.10;;
16699;SDS011;8466;52.286;21.124;2024-01-30T03:09:15;32.07;;;21.20;;
16699;SDS011;8466;52.286;21.124;2024-01-30T03:11:46;32.53;;;21.50;;
16699;SDS011;8466;52.286;21.124;2024-01-30T03:14:14;35.73;;;22.57;;
16699;SDS011;8466;52.286;21.124;2024-01-30T03:16:43;31.10;;;21.53;;
16699;SDS011;8466;52.286;21.124;2024-01-30T03:19:12;34.27;;;21.60;;
16699;SDS011;8466;52.286;21.124;2024-01-30T03:21:41;32.17;;;24.73;;
16699;SDS011;8466;52.286;21.124;2024-01-30T03:24:09;33.50;;;22.53;;
16699;SDS011;8466;52.286;21.124;2024-01-30T03:26:38;35.10;;;21.63;;
16699;SDS011;8466;52.286;21.124;2024-01-30T03:29:10;33.10;;;21.70;;
16699;SDS011;8466;52.286;21.124;2024-01-30T03:31:41;33.53;;;21.43;;
16699;SDS011;8466;52.286;21.124;2024-01-30T03:34:09;33.23;;;22.30;;
16699;SDS011;8466;52.286;21.124;2024-01-30T03:36:38;33.80;;;21.40;;
16699;SDS011;8466;52.286;21.124;2024-01-30T03:39:07;32.60;;;21.27;;
16699;SDS011;8466;52.286;21.124;2024-01-30T03:41:35;33.27;;;20.80;;
16699;SDS011;8466;52.286;21.124;2024-01-30T03:44:05;33.93;;;21.77;;
16699;SDS011;8466;52.286;21.124;2024-01-30T03:46:36;34.77;;;21.80;;
16699;SDS011;8466;52.286;21.124;2024-01-30T03:49:04;34.03;;;21.07;;
16699;SDS011;8466;52.286;21.124;2024-01-30T03:51:33;37.17;;;22.87;;
16699;SDS011;8466;52.286;21.124;2024-01-30T03:54:02;35.60;;;22.00;;
16699;SDS011;8466;52.286;21.124;2024-01-30T03:56:30;35.23;;;22.87;;
16699;SDS011;8466;52.286;21.124;2024-01-30T03:59:00;35.83;;;22.90;;
16699;SDS011;8466;52.286;21.124;2024-01-30T04:01:31;32.83;;;21.33;;
16699;SDS011;8466;52.286;21.124;2024-01-30T04:04:00;36.37;;;22.50;;
16699;SDS011;8466;52.286;21.124;2024-01-30T04:06:29;34.07;;;21.60;;
16699;SDS011;8466;52.286;21.124;2024-01-30T04:08:57;34.78;;;22.15;;
16699;SDS011;8466;52.286;21.124;2024-01-30T04:11:26;35.40;;;23.40;;
16699;SDS011;8466;52.286;21.124;2024-01-30T04:13:54;36.40;;;23.70;;
16699;SDS011;8466;52.286;21.124;2024-01-30T04:16:23;35.30;;;23.10;;
16699;SDS011;8466;52.286;21.124;2024-01-30T04:18:53;34.83;;;25.90;;
16699;SDS011;8466;52.286;21.124;2024-01-30T04:21:22;37.73;;;24.53;;
16699;SDS011;8466;52.286;21.124;2024-01-30T04:23:51;34.40;;;23.43;;
16699;SDS011;8466;52.286;21.124;2024-01-30T04:26:21;36.60;;;22.63;;
16699;SDS011;8466;52.286;21.124;2024-01-30T04:28:50;37.80;;;23.07;;
16699;SDS011;8466;52.286;21.124;2024-01-30T04:31:19;34.77;;;22.30;;
16699;SDS011;8466;52.286;21.124;2024-01-30T04:33:47;34.90;;;22.60;;
16699;SDS011;8466;52.286;21.124;2024-01-30T04:36:18;38.57;;;23.30;;
16699;SDS011;8466;52.286;21.124;2024-01-30T04:38:46;34.60;;;22.27;;
16699;SDS011;8466;52.286;21.124;2024-01-30T04:41:15;34.10;;;22.43;;
16699;SDS011;8466;52.286;21.124;2024-01-30T04:43:43;36.07;;;23.10;;
16699;SDS011;8466;52.286;21.124;2024-01-30T04:46:12;34.77;;;23.27;;
16699;SDS011;8466;52.286;21.124;2024-01-30T04:48:41;35.37;;;22.63;;
16699;SDS011;8466;52.286;21.124;2024-01-30T04:51:10;35.67;;;26.33;;
16699;SDS011;8466;52.286;21.124;2024-01-30T04:53:40;34.17;;;22.50;;
16699;SDS011;8466;52.286;21.124;2024-01-30T04:56:09;38.80;;;23.70;;
16699;SDS011;8466;52.286;21.124;2024-01-30T04:58:37;34.83;;;23.23;;
16699;SDS011;8466;52.286;21.124;2024-01-30T05:01:06;36.00;;;22.63;;
16699;SDS011;8466;52.286;21.124;2024-01-30T05:03:35;35.03;;;22.90;;
16699;SDS011;8466;52.286;21.124;2024-01-30T05:06:04;36.77;;;23.43;;
16699;SDS011;8466;52.286;21.124;2024-01-30T05:08:33;40.83;;;23.57;;
16699;SDS011;8466;52.286;21.124;2024-01-30T05:11:04;37.70;;;23.63;;
16699;SDS011;8466;52.286;21.124;2024-01-30T05:13:34;37.10;;;23.40;;
16699;SDS011;8466;52.286;21.124;2024-01-30T05:16:02;34.90;;;22.40;;
16699;SDS011;8466;52.286;21.124;2024-01-30T05:18:31;36.00;;;23.03;;
16699;SDS011;8466;52.286;21.124;2024-01-30T05:21:01;36.93;;;23.93;;
16699;SDS011;8466;52.286;21.124;2024-01-30T05:23:30;35.73;;;23.67;;
16699;SDS011;8466;52.286;21.124;2024-01-30T05:25:59;39.23;;;23.27;;
16699;SDS011;8466;52.286;21.124;2024-01-30T05:28:32;38.63;;;23.83;;
16699;SDS011;8466;52.286;21.124;2024-01-30T05:31:01;33.97;;;22.03;;
16699;SDS011;8466;52.286;21.124;2024-01-30T05:33:29;37.17;;;24.30;;
16699;SDS011;8466;52.286;21.124;2024-01-30T05:35:58;35.13;;;23.80;;
16699;SDS011;8466;52.286;21.124;2024-01-30T05:38:27;38.87;;;23.00;;
16699;SDS011;8466;52.286;21.124;2024-01-30T05:40:56;36.27;;;23.77;;
16699;SDS011;8466;52.286;21.124;2024-01-30T05:43:25;36.27;;;24.10;;
16699;SDS011;8466;52.286;21.124;2024-01-30T05:45:55;37.67;;;23.57;;
16699;SDS011;8466;52.286;21.124;2024-01-30T05:48:24;32.87;;;22.23;;
16699;SDS011;8466;52.286;21.124;2024-01-30T05:50:53;36.27;;;24.47;;
16699;SDS011;8466;52.286;21.124;2024-01-30T05:53:22;32.87;;;22.53;;
16699;SDS011;8466;52.286;21.124;2024-01-30T05:55:50;35.23;;;23.97;;
16699;SDS011;8466;52.286;21.124;2024-01-30T05:58:19;36.53;;;23.53;;
16699;SDS011;8466;52.286;21.124;2024-01-30T06:00:49;39.47;;;25.17;;
16699;SDS011;8466;52.286;21.124;2024-01-30T06:03:23;41.03;;;25.53;;
16699;SDS011;8466;52.286;21.124;2024-01-30T06:05:52;37.90;;;24.47;;
16699;SDS011;8466;52.286;21.124;2024-01-30T06:08:20;38.77;;;23.97;;
16699;SDS011;8466;52.286;21.124;2024-01-30T06:10:49;40.60;;;25.50;;
16699;SDS011;8466;52.286;21.124;2024-01-30T06:13:19;35.73;;;24.20;;
16699;SDS011;8466;52.286;21.124;2024-01-30T06:15:48;39.20;;;24.63;;
16699;SDS011;8466;52.286;21.124;2024-01-30T06:18:17;38.50;;;23.83;;
16699;SDS011;8466;52.286;21.124;2024-01-30T06:20:48;38.27;;;25.47;;
16699;SDS011;8466;52.286;21.124;2024-01-30T06:23:18;36.77;;;24.07;;
16699;SDS011;8466;52.286;21.124;2024-01-30T06:25:47;38.87;;;24.03;;
16699;SDS011;8466;52.286;21.124;2024-01-30T06:28:16;33.17;;;22.33;;
16699;SDS011;8466;52.286;21.124;2024-01-30T06:30:45;34.77;;;23.33;;
16699;SDS011;8466;52.286;21.124;2024-01-30T06:33:14;37.23;;;24.33;;
16699;SDS011;8466;52.286;21.124;2024-01-30T06:35:48;36.80;;;24.17;;
16699;SDS011;8466;52.286;21.124;2024-01-30T06:38:17;38.73;;;24.67;;
16699;SDS011;8466;52.286;21.124;2024-01-30T06:40:46;36.00;;;23.77;;
16699;SDS011;8466;52.286;21.124;2024-01-30T06:43:14;36.70;;;24.83;;
16699;SDS011;8466;52.286;21.124;2024-01-30T06:45:43;42.27;;;25.40;;
16699;SDS011;8466;52.286;21.124;2024-01-30T06:48:13;37.07;;;25.70;;
16699;SDS011;8466;52.286;21.124;2024-01-30T06:50:41;40.20;;;25.10;;
16699;SDS011;8466;52.286;21.124;2024-01-30T06:53:12;41.43;;;25.50;;
16699;SDS011;8466;52.286;21.124;2024-01-30T06:55:42;42.63;;;24.77;;
16699;SDS011;8466;52.286;21.124;2024-01-30T06:58:15;39.90;;;25.60;;
16699;SDS011;8466;52.286;21.124;2024-01-30T07:00:44;41.47;;;27.23;;
16699;SDS011;8466;52.286;21.124;2024-01-30T07:03:13;37.27;;;24.43;;
16699;SDS011;8466;52.286;21.124;2024-01-30T07:05:42;40.70;;;24.67;;
16699;SDS011;8466;52.286;21.124;2024-01-30T07:08:12;38.97;;;24.90;;
16699;SDS011;8466;52.286;21.124;2024-01-30T07:10:44;37.83;;;25.77;;
16699;SDS011;8466;52.286;21.124;2024-01-30T07:13:14;36.72;;;24.65;;
16699;SDS011;8466;52.286;21.124;2024-01-30T07:15:43;39.50;;;23.97;;
16699;SDS011;8466;52.286;21.124;2024-01-30T07:18:13;34.73;;;24.33;;
16699;SDS011;8466;52.286;21.124;2024-01-30T07:20:41;42.43;;;28.60;;
16699;SDS011;8466;52.286;21.124;2024-01-30T07:23:14;37.47;;;25.10;;
16699;SDS011;8466;52.286;21.124;2024-01-30T07:25:44;36.00;;;25.00;;
16699;SDS011;8466;52.286;21.124;2024-01-30T07:28:20;33.57;;;24.33;;
16699;SDS011;8466;52.286;21.124;2024-01-30T07:30:49;36.80;;;23.67;;
16699;SDS011;8466;52.286;21.124;2024-01-30T07:33:22;35.07;;;23.30;;
16699;SDS011;8466;52.286;21.124;2024-01-30T07:35:51;35.77;;;24.83;;
16699;SDS011;8466;52.286;21.124;2024-01-30T07:38:22;40.60;;;26.53;;
16699;SDS011;8466;52.286;21.124;2024-01-30T07:40:51;38.00;;;24.27;;
16699;SDS011;8466;52.286;21.124;2024-01-30T07:43:20;35.87;;;24.10;;
16699;SDS011;8466;52.286;21.124;2024-01-30T07:45:49;38.07;;;24.63;;
16699;SDS011;8466;52.286;21.124;2024-01-30T07:48:18;35.27;;;23.60;;
16699;SDS011;8466;52.286;21.124;2024-01-30T07:50:48;37.37;;;23.47;;
16699;SDS011;8466;52.286;21.124;2024-01-30T07:53:16;37.63;;;24.37;;
16699;SDS011;8466;52.286;21.124;2024-01-30T07:55:46;37.67;;;22.83;;
16699;SDS011;8466;52.286;21.124;2024-01-30T07:58:16;36.27;;;22.60;;
16699;SDS011;8466;52.286;21.124;2024-01-30T08:00:45;31.33;;;21.23;;
16699;SDS011;8466;52.286;21.124;2024-01-30T08:03:14;32.77;;;22.50;;
16699;SDS011;8466;52.286;21.124;2024-01-30T08:05:44;34.47;;;22.40;;
16699;SDS011;8466;52.286;21.124;2024-01-30T08:08:13;35.27;;;22.67;;
16699;SDS011;8466;52.286;21.124;2024-01-30T08:10:42;31.53;;;21.73;;
16699;SDS011;8466;52.286;21.124;2024-01-30T08:13:12;30.97;;;21.90;;
16699;SDS011;8466;52.286;21.124;2024-01-30T08:15:40;33.50;;;22.73;;
16699;SDS011;8466;52.286;21.124;2024-01-30T08:18:09;32.40;;;21.07;;
16699;SDS011;8466;52.286;21.124;2024-01-30T08:20:38;32.70;;;21.83;;
16699;SDS011;8466;52.286;21.124;2024-01-30T08:23:06;33.70;;;22.20;;
16699;SDS011;8466;52.286;21.124;2024-01-30T08:25:35;31.10;;;20.93;;
16699;SDS011;8466;52.286;21.124;2024-01-30T08:28:04;31.23;;;21.93;;
16699;SDS011;8466;52.286;21.124;2024-01-30T08:30:35;31.83;;;21.90;;
16699;SDS011;8466;52.286;21.124;2024-01-30T08:33:06;31.10;;;21.17;;
16699;SDS011;8466;52.286;21.124;2024-01-30T08:35:35;36.30;;;22.90;;
16699;SDS011;8466;52.286;21.124;2024-01-30T08:38:05;32.90;;;21.77;;
16699;SDS011;8466;52.286;21.124;2024-01-30T08:40:33;32.63;;;22.43;;
16699;SDS011;8466;52.286;21.124;2024-01-30T08:43:01;30.73;;;21.13;;
16699;SDS011;8466;52.286;21.124;2024-01-30T08:45:30;31.53;;;21.00;;
16699;SDS011;8466;52.286;21.124;2024-01-30T08:48:00;28.67;;;20.77;;
16699;SDS011;8466;52.286;21.124;2024-01-30T08:50:29;31.17;;;22.63;;
16699;SDS011;8466;52.286;21.124;2024-01-30T08:53:04;30.57;;;20.67;;
16699;SDS011;8466;52.286;21.124;2024-01-30T08:55:33;35.10;;;21.43;;
16699;SDS011;8466;52.286;21.124;2024-01-30T08:58:02;30.03;;;21.17;;
16699;SDS011;8466;52.286;21.124;2024-01-30T09:00:32;30.00;;;20.60;;
16699;SDS011;8466;52.286;21.124;2024-01-30T09:03:05;29.90;;;21.50;;
16699;SDS011;8466;52.286;21.124;2024-01-30T09:05:37;30.63;;;20.53;;
16699;SDS011;8466;52.286;21.124;2024-01-30T09:08:07;32.33;;;20.63;;
16699;SDS011;8466;52.286;21.124;2024-01-30T09:10:37;31.67;;;21.17;;
16699;SDS011;8466;52.286;21.124;2024-01-30T09:13:07;30.67;;;19.57;;
16699;SDS011;8466;52.286;21.124;2024-01-30T09:15:36;30.53;;;20.73;;
16699;SDS011;8466;52.286;21.124;2024-01-30T09:18:07;27.23;;;20.80;;
16699;SDS011;8466;52.286;21.124;2024-01-30T09:20:36;29.63;;;20.40;;
16699;SDS011;8466;52.286;21.124;2024-01-30T09:23:05;28.80;;;19.67;;
16699;SDS011;8466;52.286;21.124;2024-01-30T09:25:35;24.97;;;18.83;;
16699;SDS011;8466;52.286;21.124;2024-01-30T09:28:05;27.00;;;19.50;;
16699;SDS011;8466;52.286;21.124;2024-01-30T09:30:34;28.17;;;18.00;;
16699;SDS011;8466;52.286;21.124;2024-01-30T09:33:06;26.40;;;17.67;;
16699;SDS011;8466;52.286;21.124;2024-01-30T09:35:35;28.37;;;18.70;;
16699;SDS011;8466;52.286;21.124;2024-01-30T09:38:04;29.07;;;18.33;;
16699;SDS011;8466;52.286;21.124;2024-01-30T09:40:33;26.53;;;17.47;;
16699;SDS011;8466;52.286;21.124;2024-01-30T09:43:02;24.03;;;17.37;;
16699;SDS011;8466;52.286;21.124;2024-01-30T09:45:31;26.90;;;17.53;;
16699;SDS011;8466;52.286;21.124;2024-01-30T09:48:01;21.83;;;16.07;;
16699;SDS011;8466;52.286;21.124;2024-01-30T09:50:32;25.03;;;16.53;;
16699;SDS011;8466;52.286;21.124;2024-01-30T09:53:06;24.13;;;17.13;;
16699;SDS011;8466;52.286;21.124;2024-01-30T09:55:36;25.33;;;16.93;;
16699;SDS011;8466;52.286;21.124;2024-01-30T09:58:05;24.73;;;15.67;;
16699;SDS011;8466;52.286;21.124;2024-01-30T10:00:37;23.67;;;17.03;;
16699;SDS011;8466;52.286;21.124;2024-01-30T10:03:10;25.40;;;16.97;;
16699;SDS011;8466;52.286;21.124;2024-01-30T10:05:43;20.93;;;15.43;;
16699;SDS011;8466;52.286;21.124;2024-01-30T10:08:18;21.10;;;15.43;;
16699;SDS011;8466;52.286;21.124;2024-01-30T10:10:47;23.70;;;16.37;;
16699;SDS011;8466;52.286;21.124;2024-01-30T10:13:17;23.83;;;15.80;;
16699;SDS011;8466;52.286;21.124;2024-01-30T10:15:47;21.77;;;15.17;;
16699;SDS011;8466;52.286;21.124;2024-01-30T10:18:16;26.33;;;15.60;;
16699;SDS011;8466;52.286;21.124;2024-01-30T10:20:46;22.93;;;15.30;;
16699;SDS011;8466;52.286;21.124;2024-01-30T10:23:15;22.87;;;15.20;;
16699;SDS011;8466;52.286;21.124;2024-01-30T10:25:44;23.17;;;15.30;;
16699;SDS011;8466;52.286;21.124;2024-01-30T10:28:13;20.97;;;14.97;;
16699;SDS011;8466;52.286;21.124;2024-01-30T10:30:41;20.30;;;14.17;;
16699;SDS011;8466;52.286;21.124;2024-01-30T10:33:15;24.40;;;15.33;;
16699;SDS011;8466;52.286;21.124;2024-01-30T10:35:46;19.20;;;15.10;;
16699;SDS011;8466;52.286;21.124;2024-01-30T10:38:16;22.03;;;14.47;;
16699;SDS011;8466;52.286;21.124;2024-01-30T10:40:48;22.53;;;14.70;;
16699;SDS011;8466;52.286;21.124;2024-01-30T10:43:22;21.13;;;14.60;;
16699;SDS011;8466;52.286;21.124;2024-01-30T10:45:56;20.17;;;13.33;;
16699;SDS011;8466;52.286;21.124;2024-01-30T10:48:30;19.40;;;14.40;;
16699;SDS011;8466;52.286;21.124;2024-01-30T10:51:08;20.90;;;13.67;;
16699;SDS011;8466;52.286;21.124;2024-01-30T10:53:39;21.93;;;14.30;;
16699;SDS011;8466;52.286;21.124;2024-01-30T10:56:09;17.93;;;13.00;;
16699;SDS011;8466;52.286;21.124;2024-01-30T10:58:43;23.10;;;15.23;;
16699;SDS011;8466;52.286;21.124;2024-01-30T11:01:12;20.50;;;13.83;;
16699;SDS011;8466;52.286;21.124;2024-01-30T11:03:42;21.23;;;13.90;;
16699;SDS011;8466;52.286;21.124;2024-01-30T11:06:12;22.67;;;14.47;;
16699;SDS011;8466;52.286;21.124;2024-01-30T11:08:45;18.43;;;12.73;;
16699;SDS011;8466;52.286;21.124;2024-01-30T11:11:14;19.43;;;12.60;;
16699;SDS011;8466;52.286;21.124;2024-01-30T11:13:45;18.08;;;14.15;;
16699;SDS011;8466;52.286;21.124;2024-01-30T11:16:17;18.37;;;13.33;;
16699;SDS011;8466;52.286;21.124;2024-01-30T11:18:50;22.10;;;13.87;;
16699;SDS011;8466;52.286;21.124;2024-01-30T11:21:20;19.93;;;14.57;;
16699;SDS011;8466;52.286;21.124;2024-01-30T11:23:54;19.43;;;13.00;;
16699;SDS011;8466;52.286;21.124;2024-01-30T11:26:24;17.57;;;13.50;;
16699;SDS011;8466;52.286;21.124;2024-01-30T11:28:56;18.80;;;13.13;;
16699;SDS011;8466;52.286;21.124;2024-01-30T11:31:25;19.53;;;13.87;;
16699;SDS011;8466;52.286;21.124;2024-01-30T11:33:55;21.60;;;13.97;;
16699;SDS011;8466;52.286;21.124;2024-01-30T11:36:27;22.30;;;13.13;;
16699;SDS011;8466;52.286;21.124;2024-01-30T11:38:56;15.87;;;12.17;;
16699;SDS011;8466;52.286;21.124;2024-01-30T11:41:25;20.40;;;13.95;;
16699;SDS011;8466;52.286;21.124;2024-01-30T11:44:20;19.27;;;13.40;;
16699;SDS011;8466;52.286;21.124;2024-01-30T11:46:56;18.27;;;13.27;;
16699;SDS011;8466;52.286;21.124;2024-01-30T11:49:36;22.30;;;13.63;;
16699;SDS011;8466;52.286;21.124;2024-01-30T11:52:06;19.67;;;13.20;;
16699;SDS011;8466;52.286;21.124;2024-01-30T11:54:42;17.27;;;13.63;;
16699;SDS011;8466;52.286;21.124;2024-01-30T11:57:17;16.23;;;12.77;;
16699;SDS011;8466;52.286;21.124;2024-01-30T11:59:54;17.33;;;12.73;;
16699;SDS011;8466;52.286;21.124;2024-01-30T12:02:27;19.73;;;13.10;;
16699;SDS011;8466;52.286;21.124;2024-01-30T12:05:19;20.23;;;13.03;;
16699;SDS011;8466;52.286;21.124;2024-01-30T12:07:49;18.17;;;12.87;;
16699;SDS011;8466;52.286;21.124;2024-01-30T12:10:19;19.33;;;13.00;;
16699;SDS011;8466;52.286;21.124;2024-01-30T12:12:49;18.63;;;12.90;;
16699;SDS011;8466;52.286;21.124;2024-01-30T12:15:18;19.07;;;13.70;;
16699;SDS011;8466;52.286;21.124;2024-01-30T12:17:49;17.20;;;12.87;;
16699;SDS011;8466;52.286;21.124;2024-01-30T12:20:19;18.37;;;13.70;;
16699;SDS011;8466;52.286;21.124;2024-01-30T12:22:51;20.77;;;13.30;;
16699;SDS011;8466;52.286;21.124;2024-01-30T12:25:21;19.70;;;12.87;;
16699;SDS011;8466;52.286;21.124;2024-01-30T12:27:50;18.90;;;11.60;;
16699;SDS011;8466;52.286;21.124;2024-01-30T12:30:19;20.50;;;12.60;;
16699;SDS011;8466;52.286;21.124;2024-01-30T12:32:49;19.23;;;12.50;;
16699;SDS011;8466;52.286;21.124;2024-01-30T12:35:19;17.08;;;13.00;;
16699;SDS011;8466;52.286;21.124;2024-01-30T12:37:48;20.73;;;12.83;;
16699;SDS011;8466;52.286;21.124;2024-01-30T12:40:20;21.47;;;13.63;;
16699;SDS011;8466;52.286;21.124;2024-01-30T12:42:51;20.33;;;13.20;;
16699;SDS011;8466;52.286;21.124;2024-01-30T12:45:20;21.07;;;13.17;;
16699;SDS011;8466;52.286;21.124;2024-01-30T12:47:49;19.57;;;12.07;;
16699;SDS011;8466;52.286;21.124;2024-01-30T12:50:18;17.23;;;12.90;;
16699;SDS011;8466;52.286;21.124;2024-01-30T12:52:47;18.50;;;12.23;;
16699;SDS011;8466;52.286;21.124;2024-01-30T12:55:16;15.53;;;12.20;;
16699;SDS011;8466;52.286;21.124;2024-01-30T12:57:47;18.40;;;12.23;;
16699;SDS011;8466;52.286;21.124;2024-01-30T13:00:15;19.07;;;12.50;;
16699;SDS011;8466;52.286;21.124;2024-01-30T13:02:44;16.53;;;11.53;;
16699;SDS011;8466;52.286;21.124;2024-01-30T13:05:13;17.70;;;12.03;;
16699;SDS011;8466;52.286;21.124;2024-01-30T13:07:42;16.50;;;11.40;;
16699;SDS011;8466;52.286;21.124;2024-01-30T13:10:11;14.47;;;12.13;;
16699;SDS011;8466;52.286;21.124;2024-01-30T13:12:40;16.57;;;11.67;;
16699;SDS011;8466;52.286;21.124;2024-01-30T13:15:10;15.90;;;12.23;;
16699;SDS011;8466;52.286;21.124;2024-01-30T13:17:39;17.50;;;12.00;;
16699;SDS011;8466;52.286;21.124;2024-01-30T13:20:09;22.13;;;13.70;;
16699;SDS011;8466;52.286;21.124;2024-01-30T13:22:39;17.67;;;13.23;;
16699;SDS011;8466;52.286;21.124;2024-01-30T13:25:07;18.47;;;12.03;;
16699;SDS011;8466;52.286;21.124;2024-01-30T13:27:36;16.80;;;11.77;;
16699;SDS011;8466;52.286;21.124;2024-01-30T13:30:06;14.63;;;11.57;;
16699;SDS011;8466;52.286;21.124;2024-01-30T13:32:38;16.43;;;11.60;;
16699;SDS011;8466;52.286;21.124;2024-01-30T13:35:08;15.17;;;11.50;;
16699;SDS011;8466;52.286;21.124;2024-01-30T13:37:37;17.37;;;12.73;;
16699;SDS011;8466;52.286;21.124;2024-01-30T13:40:09;17.07;;;11.07;;
16699;SDS011;8466;52.286;21.124;2024-01-30T13:42:49;18.13;;;12.37;;
16699;SDS011;8466;52.286;21.124;2024-01-30T13:45:18;14.57;;;11.70;;
16699;SDS011;8466;52.286;21.124;2024-01-30T13:47:51;18.93;;;12.43;;
16699;SDS011;8466;52.286;21.124;2024-01-30T13:50:20;18.10;;;12.30;;
16699;SDS011;8466;52.286;21.124;2024-01-30T13:52:49;16.80;;;12.43;;
16699;SDS011;8466;52.286;21.124;2024-01-30T13:55:18;17.00;;;12.23;;
16699;SDS011;8466;52.286;21.124;2024-01-30T13:57:47;15.63;;;12.03;;
16699;SDS011;8466;52.286;21.124;2024-01-30T14:00:17;17.00;;;12.27;;
16699;SDS011;8466;52.286;21.124;2024-01-30T14:02:49;19.10;;;12.30;;
16699;SDS011;8466;52.286;21.124;2024-01-30T14:05:21;19.00;;;12.30;;
16699;SDS011;8466;52.286;21.124;2024-01-30T14:07:50;20.83;;;13.17;;
16699;SDS011;8466;52.286;21.124;2024-01-30T14:10:19;17.37;;;12.73;;
16699;SDS011;8466;52.286;21.124;2024-01-30T14:12:48;16.43;;;12.13;;
16699;SDS011;8466;52.286;21.124;2024-01-30T14:15:17;17.77;;;12.67;;
16699;SDS011;8466;52.286;21.124;2024-01-30T14:17:56;19.33;;;12.90;;
16699;SDS011;8466;52.286;21.124;2024-01-30T14:20:25;15.60;;;11.60;;
16699;SDS011;8466;52.286;21.124;2024-01-30T14:22:54;17.70;;;12.07;;
16699;SDS011;8466;52.286;21.124;2024-01-30T14:25:23;15.97;;;12.00;;
16699;SDS011;8466;52.286;21.124;2024-01-30T14:27:52;15.97;;;11.50;;
16699;SDS011;8466;52.286;21.124;2024-01-30T14:30:21;18.63;;;12.07;;
16699;SDS011;8466;52.286;21.124;2024-01-30T14:32:50;17.80;;;11.20;;
16699;SDS011;8466;52.286;21.124;2024-01-30T14:35:21;19.30;;;11.63;;
16699;SDS011;8466;52.286;21.124;2024-01-30T14:37:49;17.43;;;10.93;;